createdAt,value
2022-11-29T00:02:22.846Z,7.95
2022-11-29T00:04:50.749Z,7.57
2022-11-29T00:07:18.598Z,7.80
2022-11-29T00:09:46.517Z,7.00
2022-11-29T00:12:14.502Z,8.05
2022-11-29T00:14:42.970Z,6.95
2022-11-29T00:17:11.044Z,6.32
2022-11-29T00:19:39.157Z,7.50
2022-11-29T00:22:06.997Z,6.03
2022-11-29T00:24:34.952Z,7.63
2022-11-29T00:27:03.145Z,6.95
2022-11-29T00:29:31.243Z,7.05
2022-11-29T00:32:00.080Z,6.72
2022-11-29T00:34:28.873Z,6.05
2022-11-29T00:41:07.293Z,6.88
2022-11-29T00:43:36.006Z,7.38
2022-11-29T00:46:05.145Z,6.53
2022-11-29T00:48:33.298Z,6.25
2022-11-29T00:51:02.341Z,6.75
2022-11-29T00:53:30.813Z,7.68
2022-11-29T00:55:59.116Z,6.57
2022-11-29T00:58:27.665Z,6.70
2022-11-29T01:00:56.742Z,7.00
2022-11-29T01:03:25.358Z,6.60
2022-11-29T01:05:54.091Z,6.97
2022-11-29T01:08:22.012Z,6.82
2022-11-29T01:10:50.228Z,7.10
2022-11-29T01:13:18.292Z,7.00
2022-11-29T01:15:46.326Z,7.30
2022-11-29T01:18:14.469Z,7.35
2022-11-29T01:20:42.548Z,7.47
2022-11-29T01:23:10.544Z,7.78
2022-11-29T01:25:38.477Z,6.93
2022-11-29T01:28:06.561Z,7.13
2022-11-29T01:30:34.533Z,6.50
2022-11-29T01:33:02.565Z,6.68
2022-11-29T01:35:30.488Z,6.43
2022-11-29T01:41:42.214Z,8.20
2022-11-29T01:44:13.465Z,7.25
2022-11-29T01:46:46.054Z,6.90
2022-11-29T01:49:39.766Z,6.88
2022-11-29T01:52:07.871Z,7.90
2022-11-29T01:54:42.554Z,7.15
2022-11-29T01:57:11.857Z,7.50
2022-11-29T01:59:44.547Z,6.80
2022-11-29T02:04:43.719Z,6.28
2022-11-29T02:07:12.050Z,7.13
2022-11-29T02:09:40.411Z,6.88
2022-11-29T02:12:17.416Z,6.90
2022-11-29T02:14:51.258Z,6.65
2022-11-29T02:17:37.760Z,7.10
2022-11-29T02:20:36.294Z,8.18
2022-11-29T02:23:28.722Z,7.38
2022-11-29T02:26:47.832Z,7.28
2022-11-29T02:29:53.343Z,6.40
2022-11-29T02:32:47.852Z,7.45
2022-11-29T02:36:04.056Z,6.75
2022-11-29T02:39:23.529Z,6.68
2022-11-29T02:42:19.104Z,6.97
2022-11-29T02:45:11.775Z,6.85
2022-11-29T02:48:10.218Z,6.90
2022-11-29T02:51:21.920Z,6.57
2022-11-29T02:54:04.723Z,8.40
2022-11-29T02:56:43.143Z,6.40
2022-11-29T02:59:39.119Z,7.30
2022-11-29T03:02:26.332Z,6.47
2022-11-29T03:05:18.876Z,6.65
2022-11-29T03:08:13.640Z,7.43
2022-11-29T03:10:56.908Z,8.38
2022-11-29T03:13:52.972Z,7.10
2022-11-29T03:16:44.362Z,6.82
2022-11-29T03:19:21.131Z,6.43
2022-11-29T03:22:08.185Z,7.63
2022-11-29T03:24:56.487Z,6.88
2022-11-29T03:27:33.125Z,7.60
2022-11-29T03:30:10.091Z,7.20
2022-11-29T03:32:59.248Z,6.90
2022-11-29T03:35:42.194Z,7.32
2022-11-29T03:38:28.081Z,7.72
2022-11-29T03:41:17.982Z,7.07
2022-11-29T03:44:01.510Z,7.13
2022-11-29T03:46:38.116Z,7.38
2022-11-29T03:49:33.375Z,7.20
2022-11-29T03:52:22.240Z,6.47
2022-11-29T03:54:57.818Z,7.97
2022-11-29T03:57:43.593Z,6.97
2022-11-29T04:00:13.554Z,7.07
2022-11-29T04:03:15.496Z,7.45
2022-11-29T04:06:02.299Z,6.20
2022-11-29T04:08:57.882Z,7.13
2022-11-29T04:12:00.056Z,6.93
2022-11-29T04:14:51.714Z,6.88
2022-11-29T04:17:50.491Z,7.68
2022-11-29T04:20:47.850Z,7.03
2022-11-29T04:23:22.592Z,7.07
2022-11-29T04:26:08.708Z,7.40
2022-11-29T04:28:51.208Z,6.97
2022-11-29T04:31:41.320Z,6.88
2022-11-29T04:34:45.153Z,7.18
2022-11-29T04:37:13.764Z,6.80
2022-11-29T04:40:12.953Z,6.90
2022-11-29T04:43:16.781Z,6.68
2022-11-29T04:45:50.899Z,7.32
2022-11-29T04:48:44.163Z,7.20
2022-11-29T04:51:35.537Z,7.22
2022-11-29T04:54:06.384Z,7.00
2022-11-29T04:56:45.978Z,7.97
2022-11-29T04:59:30.887Z,7.75
2022-11-29T05:02:20.849Z,7.88
2022-11-29T05:05:07.889Z,6.72
2022-11-29T05:07:56.850Z,7.03
2022-11-29T05:10:29.601Z,7.35
2022-11-29T05:13:26.652Z,7.32
2022-11-29T05:16:36.181Z,7.45
2022-11-29T05:19:31.882Z,6.15
2022-11-29T05:22:02.989Z,7.95
2022-11-29T05:24:43.532Z,6.43
2022-11-29T05:27:20.622Z,7.88
2022-11-29T05:30:11.246Z,6.72
2022-11-29T05:33:08.407Z,8.75
2022-11-29T05:35:39.247Z,6.57
2022-11-29T05:39:03.319Z,6.57
2022-11-29T05:42:05.437Z,7.57
2022-11-29T05:44:47.019Z,6.35
2022-11-29T05:47:47.216Z,6.75
2022-11-29T05:50:42.453Z,6.85
2022-11-29T05:53:38.740Z,7.25
2022-11-29T05:56:42.104Z,6.25
2022-11-29T05:59:15.912Z,8.98
2022-11-29T06:01:55.679Z,7.65
2022-11-29T06:04:48.685Z,9.73
2022-11-29T06:07:28.961Z,7.40
2022-11-29T06:10:03.791Z,8.13
2022-11-29T06:12:38.272Z,7.75
2022-11-29T06:15:41.566Z,8.77
2022-11-29T06:18:27.770Z,8.32
2022-11-29T06:20:56.017Z,6.80
2022-11-29T06:24:11.450Z,7.03
2022-11-29T06:27:38.823Z,8.38
2022-11-29T06:30:14.981Z,9.25
2022-11-29T06:33:01.631Z,6.90
2022-11-29T06:35:47.865Z,7.85
2022-11-29T06:38:26.664Z,8.32
2022-11-29T06:41:01.551Z,7.43
2022-11-29T06:43:30.857Z,8.88
2022-11-29T06:46:10.500Z,18.70
2022-11-29T06:51:33.026Z,24.25
2022-11-29T06:54:19.820Z,22.08
2022-11-29T06:57:11.252Z,20.45
2022-11-29T06:59:52.616Z,18.42
2022-11-29T07:02:55.514Z,17.00
2022-11-29T07:05:36.738Z,16.63
2022-11-29T07:08:17.063Z,18.52
2022-11-29T07:10:49.594Z,16.25
2022-11-29T07:13:18.815Z,12.77
2022-11-29T07:15:55.973Z,15.35
2022-11-29T07:18:32.892Z,14.20
2022-11-29T07:21:21.639Z,14.55
2022-11-29T07:23:49.435Z,8.50
2022-11-29T07:26:58.029Z,9.63
2022-11-29T07:29:39.543Z,12.68
2022-11-29T07:32:47.289Z,10.88
2022-11-29T07:35:22.443Z,11.85
2022-11-29T07:38:10.376Z,8.63
2022-11-29T07:40:51.484Z,11.20
2022-11-29T07:43:40.195Z,8.82
2022-11-29T07:46:08.285Z,8.40
2022-11-29T07:48:36.340Z,9.38
2022-11-29T07:51:04.425Z,11.18
2022-11-29T07:53:33.264Z,10.68
2022-11-29T07:56:01.235Z,9.82
2022-11-29T07:58:29.533Z,10.05
2022-11-29T08:00:57.810Z,11.43
2022-11-29T08:03:25.799Z,8.95
2022-11-29T08:05:53.913Z,9.48
2022-11-29T08:08:21.922Z,7.45
2022-11-29T08:10:49.902Z,6.78
2022-11-29T08:13:20.776Z,8.98
2022-11-29T08:15:50.161Z,7.05
2022-11-29T08:18:18.223Z,8.70
2022-11-29T08:20:46.560Z,7.32
2022-11-29T08:23:14.972Z,7.32
2022-11-29T08:25:42.927Z,6.88
2022-11-29T08:28:10.856Z,9.48
2022-11-29T08:30:38.747Z,7.40
2022-11-29T08:33:07.334Z,6.70
2022-11-29T08:35:36.062Z,8.25
2022-11-29T08:38:05.171Z,7.18
2022-11-29T08:40:33.198Z,6.85
2022-11-29T08:43:01.090Z,6.90
2022-11-29T08:45:29.269Z,6.93
2022-11-29T08:47:57.346Z,7.55
2022-11-29T08:50:25.929Z,7.63
2022-11-29T08:53:12.170Z,8.52
2022-11-29T08:55:43.153Z,6.72
2022-11-29T08:58:14.011Z,7.63
2022-11-29T09:00:45.699Z,8.15
2022-11-29T09:03:31.948Z,7.63
2022-11-29T09:06:12.912Z,6.53
2022-11-29T09:08:43.869Z,6.88
2022-11-29T09:11:15.290Z,6.30
2022-11-29T09:13:45.417Z,6.85
2022-11-29T09:16:15.884Z,7.30
2022-11-29T09:18:50.051Z,7.65
2022-11-29T09:21:19.885Z,8.10
2022-11-29T09:23:47.844Z,8.15
2022-11-29T09:26:19.932Z,6.38
2022-11-29T09:28:47.996Z,7.68
2022-11-29T09:31:17.341Z,8.35
2022-11-29T09:33:49.156Z,6.32
2022-11-29T09:36:17.196Z,6.95
2022-11-29T09:38:45.109Z,6.97
2022-11-29T09:41:28.003Z,7.78
2022-11-29T09:44:04.394Z,6.55
2022-11-29T09:46:58.803Z,8.27
2022-11-29T09:49:35.870Z,6.43
2022-11-29T09:52:08.660Z,6.47
2022-11-29T09:57:25.263Z,6.85
2022-11-29T09:59:57.580Z,6.70
2022-11-29T10:02:47.930Z,9.77
2022-11-29T10:10:35.327Z,6.30
2022-11-29T10:13:12.144Z,6.32
2022-11-29T10:15:43.933Z,9.02
2022-11-29T10:18:16.775Z,7.40
2022-11-29T10:20:49.327Z,6.13
2022-11-29T10:23:36.312Z,6.20
2022-11-29T10:26:08.947Z,6.55
2022-11-29T10:28:37.883Z,7.85
2022-11-29T10:31:13.645Z,7.25
2022-11-29T10:33:42.370Z,6.88
2022-11-29T10:36:25.942Z,7.68
2022-11-29T10:38:59.309Z,6.68
2022-11-29T10:43:58.951Z,6.18
2022-11-29T10:46:36.929Z,6.68
2022-11-29T10:49:07.657Z,6.43
2022-11-29T10:51:35.651Z,10.32
2022-11-29T10:54:23.391Z,6.13
2022-11-29T10:56:52.351Z,7.50
2022-11-29T10:59:23.495Z,8.10
2022-11-29T11:01:52.139Z,7.57
2022-11-29T11:04:33.928Z,8.45
2022-11-29T11:07:04.739Z,7.55
2022-11-29T11:09:48.576Z,8.40
2022-11-29T11:12:16.421Z,7.20
2022-11-29T11:14:45.486Z,10.80
2022-11-29T11:17:16.830Z,10.63
2022-11-29T11:19:58.323Z,8.25
2022-11-29T11:22:27.572Z,8.13
2022-11-29T11:25:02.245Z,9.57
2022-11-29T11:27:41.388Z,8.57
2022-11-29T11:33:20.384Z,8.30
2022-11-29T11:36:17.480Z,9.05
2022-11-29T11:38:57.214Z,10.57
2022-11-29T11:41:52.176Z,7.93
2022-11-29T11:44:52.620Z,12.30
2022-11-29T11:47:24.583Z,7.47
2022-11-29T11:50:04.424Z,7.30
2022-11-29T11:52:48.872Z,7.90
2022-11-29T11:55:21.129Z,7.45
2022-11-29T11:58:09.929Z,7.32
2022-11-29T12:01:04.031Z,6.53
2022-11-29T12:03:50.076Z,9.32
2022-11-29T12:06:25.770Z,9.73
2022-11-29T12:08:59.629Z,8.07
2022-11-29T12:11:34.403Z,8.82
2022-11-29T12:14:04.315Z,6.85
2022-11-29T12:16:37.152Z,7.35
2022-11-29T12:19:18.580Z,10.52
2022-11-29T12:21:52.887Z,7.20
2022-11-29T12:24:41.716Z,9.13
2022-11-29T12:27:11.469Z,7.55
2022-11-29T12:29:39.558Z,8.18
2022-11-29T12:32:39.841Z,8.57
2022-11-29T12:35:29.768Z,7.70
2022-11-29T12:38:28.352Z,8.07
2022-11-29T12:41:06.702Z,7.88
2022-11-29T12:44:05.264Z,5.93
2022-11-29T12:46:34.472Z,7.78
2022-11-29T12:49:26.932Z,7.45
2022-11-29T12:52:02.480Z,6.75
2022-11-29T12:55:00.922Z,7.43
2022-11-29T12:57:45.346Z,9.38
2022-11-29T13:00:14.898Z,10.55
2022-11-29T13:03:04.052Z,8.80
2022-11-29T13:05:33.890Z,7.80
2022-11-29T13:08:19.682Z,10.85
2022-11-29T13:11:02.934Z,7.40
2022-11-29T13:13:44.238Z,10.18
2022-11-29T13:16:23.070Z,10.32
2022-11-29T13:19:04.788Z,11.00
2022-11-29T13:21:47.248Z,8.63
2022-11-29T13:24:42.898Z,10.98
2022-11-29T13:27:29.025Z,9.05
2022-11-29T13:29:59.741Z,7.03
2022-11-29T13:32:36.559Z,7.47
2022-11-29T13:35:25.648Z,11.65
2022-11-29T13:38:03.630Z,13.65
2022-11-29T13:40:48.879Z,19.00
2022-11-29T13:43:19.518Z,57.50
2022-11-29T13:45:53.646Z,67.88
2022-11-29T13:48:47.240Z,67.20
2022-11-29T13:51:33.801Z,58.70
2022-11-29T13:54:05.233Z,67.90
2022-11-29T13:56:46.778Z,63.20
2022-11-29T13:59:36.360Z,61.20
2022-11-29T14:02:24.861Z,59.97
2022-11-29T14:04:53.355Z,57.90
2022-11-29T14:07:21.531Z,56.38
2022-11-29T14:10:22.891Z,50.88
2022-11-29T14:12:57.803Z,47.50
2022-11-29T14:15:31.552Z,47.22
2022-11-29T14:18:02.830Z,44.42
2022-11-29T14:20:30.874Z,44.03
2022-11-29T14:23:04.988Z,44.30
2022-11-29T14:25:53.462Z,39.15
2022-11-29T14:28:21.456Z,38.03
2022-11-29T14:30:54.940Z,34.72
2022-11-29T14:33:55.361Z,36.92
2022-11-29T14:36:46.093Z,34.85
2022-11-29T14:39:26.575Z,31.30
2022-11-29T14:42:17.184Z,28.00
2022-11-29T14:44:51.092Z,29.30
2022-11-29T14:47:49.248Z,25.45
2022-11-29T14:52:58.531Z,22.80
2022-11-29T14:55:26.521Z,21.98
2022-11-29T14:57:55.531Z,24.38
2022-11-29T15:00:52.571Z,27.35
2022-11-29T15:03:29.027Z,22.80
2022-11-29T15:06:27.257Z,22.60
2022-11-29T15:09:02.295Z,21.95
2022-11-29T15:11:54.992Z,20.10
2022-11-29T15:14:35.042Z,22.50
2022-11-29T15:17:17.076Z,20.02
2022-11-29T15:20:18.508Z,21.30
2022-11-29T15:22:56.594Z,17.65
2022-11-29T15:25:28.582Z,18.00
2022-11-29T15:27:59.326Z,18.65
2022-11-29T15:30:29.324Z,16.83
2022-11-29T15:32:58.795Z,14.13
2022-11-29T15:35:27.356Z,15.20
2022-11-29T15:37:55.996Z,14.70
2022-11-29T15:40:37.473Z,13.18
2022-11-29T15:43:20.548Z,15.73
2022-11-29T15:45:58.911Z,15.45
2022-11-29T15:48:30.216Z,13.15
2022-11-29T15:51:01.091Z,12.90
2022-11-29T15:54:00.356Z,12.43
2022-11-29T15:56:47.478Z,13.35
2022-11-29T15:59:44.063Z,13.05
2022-11-29T16:02:31.528Z,12.00
2022-11-29T16:05:28.264Z,13.68
2022-11-29T16:08:04.618Z,11.95
2022-11-29T16:10:53.412Z,12.20
2022-11-29T16:13:39.530Z,11.13
2022-11-29T16:16:15.849Z,11.65
2022-11-29T16:18:46.828Z,10.93
2022-11-29T16:21:27.672Z,12.15
2022-11-29T16:23:58.029Z,10.18
2022-11-29T16:26:26.590Z,11.02
2022-11-29T16:28:58.309Z,10.27
2022-11-29T16:31:38.340Z,10.32
2022-11-29T16:34:26.538Z,9.90
2022-11-29T16:37:28.689Z,12.40
2022-11-29T16:40:00.541Z,10.18
2022-11-29T16:42:33.813Z,10.00
2022-11-29T16:45:32.805Z,8.77
2022-11-29T16:48:03.152Z,9.20
2022-11-29T16:50:32.683Z,8.88
2022-11-29T16:53:36.254Z,11.68
2022-11-29T16:56:16.625Z,11.18
2022-11-29T16:59:26.040Z,7.95
2022-11-29T17:04:05.241Z,9.98
2022-11-29T17:06:33.334Z,11.52
2022-11-29T17:09:01.702Z,11.05
2022-11-29T17:11:30.040Z,8.70
2022-11-29T17:13:58.143Z,9.10
2022-11-29T17:16:26.264Z,8.32
2022-11-29T17:18:54.363Z,9.40
2022-11-29T17:21:27.674Z,10.95
2022-11-29T17:26:24.586Z,9.82
2022-11-29T17:28:53.361Z,10.93
2022-11-29T17:31:25.504Z,10.23
2022-11-29T17:33:54.550Z,9.90
2022-11-29T17:36:22.852Z,9.77
2022-11-29T17:38:51.063Z,12.05
2022-11-29T17:41:22.823Z,8.93
2022-11-29T17:43:52.219Z,8.65
2022-11-29T17:46:29.017Z,11.23
2022-11-29T17:49:02.096Z,9.90
2022-11-29T17:54:19.686Z,7.82
2022-11-29T17:56:50.977Z,9.70
2022-11-29T17:59:19.980Z,7.55
2022-11-29T18:01:48.618Z,10.55
2022-11-29T18:04:17.368Z,10.15
2022-11-29T18:06:50.478Z,8.32
2022-11-29T18:09:20.024Z,8.60
2022-11-29T18:11:50.456Z,9.30
2022-11-29T18:14:28.568Z,10.10
2022-11-29T18:16:57.043Z,8.68
2022-11-29T18:19:28.186Z,9.35
2022-11-29T18:21:58.300Z,7.28
2022-11-29T18:24:29.699Z,9.02
2022-11-29T18:26:59.688Z,9.02
2022-11-29T18:29:34.273Z,8.32
2022-11-29T18:32:08.092Z,9.70
2022-11-29T18:34:36.327Z,8.77
2022-11-29T18:37:04.761Z,10.55
2022-11-29T18:39:33.373Z,9.13
2022-11-29T18:42:04.529Z,8.52
2022-11-29T18:44:36.024Z,7.78
2022-11-29T18:47:04.338Z,9.68
2022-11-29T18:49:32.720Z,9.85
2022-11-29T18:52:07.261Z,9.15
2022-11-29T18:54:35.638Z,8.45
2022-11-29T18:57:03.978Z,11.43
2022-11-29T18:59:32.686Z,12.55
2022-11-29T19:02:01.350Z,10.60
2022-11-29T19:04:52.033Z,11.32
2022-11-29T19:07:22.576Z,8.50
2022-11-29T19:09:50.644Z,12.07
2022-11-29T19:12:19.486Z,9.93
2022-11-29T19:14:50.005Z,15.55
2022-11-29T19:17:18.867Z,17.35
2022-11-29T19:19:47.304Z,11.95
2022-11-29T19:22:15.967Z,20.40
2022-11-29T19:24:44.396Z,8.45
2022-11-29T19:27:12.832Z,11.95
2022-11-29T19:29:40.954Z,10.50
2022-11-29T19:32:09.753Z,10.15
2022-11-29T19:34:37.705Z,9.88
2022-11-29T19:37:06.567Z,8.23
2022-11-29T19:39:34.514Z,8.50
2022-11-29T19:42:03.427Z,8.50
2022-11-29T19:44:48.258Z,7.05
2022-11-29T19:47:19.896Z,5.70
2022-11-29T19:49:48.342Z,8.43
2022-11-29T19:52:16.698Z,7.30
2022-11-29T19:54:45.829Z,7.45
2022-11-29T19:57:13.740Z,7.65
2022-11-29T19:59:41.755Z,6.60
2022-11-29T20:02:12.194Z,7.30
2022-11-29T20:04:40.304Z,7.50
2022-11-29T20:07:08.231Z,7.45
2022-11-29T20:09:36.167Z,7.32
2022-11-29T20:12:04.658Z,6.57
2022-11-29T20:14:33.510Z,7.07
2022-11-29T20:17:01.607Z,6.57
2022-11-29T20:19:29.478Z,6.57
2022-11-29T20:21:57.751Z,11.68
2022-11-29T20:24:25.669Z,5.88
2022-11-29T20:26:53.701Z,7.60
2022-11-29T20:29:27.231Z,6.70
2022-11-29T20:31:55.032Z,6.40
2022-11-29T20:34:23.125Z,6.07
2022-11-29T20:37:22.137Z,7.93
2022-11-29T20:40:06.380Z,6.60
2022-11-29T20:43:02.979Z,6.82
2022-11-29T20:45:33.609Z,7.53
2022-11-29T20:48:13.406Z,6.03
2022-11-29T20:50:44.860Z,8.50
2022-11-29T20:53:16.042Z,7.22
2022-11-29T20:55:47.932Z,7.43
2022-11-29T20:58:18.458Z,5.07
2022-11-29T21:00:49.099Z,7.72
2022-11-29T21:03:18.279Z,5.60
2022-11-29T21:05:47.179Z,7.25
2022-11-29T21:08:16.901Z,5.50
2022-11-29T21:10:45.990Z,7.57
2022-11-29T21:13:14.598Z,7.82
2022-11-29T21:15:43.217Z,6.30
2022-11-29T21:18:23.749Z,8.38
2022-11-29T21:21:07.694Z,7.57
2022-11-29T21:23:41.689Z,6.88
2022-11-29T21:26:50.610Z,7.10
2022-11-29T21:29:20.979Z,5.85
2022-11-29T21:31:51.985Z,7.80
2022-11-29T21:34:21.067Z,9.25
2022-11-29T21:37:01.218Z,9.00
2022-11-29T21:39:34.032Z,8.20
2022-11-29T21:42:02.249Z,8.90
2022-11-29T21:44:30.022Z,7.78
2022-11-29T21:46:57.859Z,7.15
2022-11-29T21:49:25.675Z,8.18
2022-11-29T21:51:53.523Z,6.57
2022-11-29T21:54:21.367Z,7.88
2022-11-29T21:56:49.627Z,7.18
2022-11-29T21:59:17.661Z,8.00
2022-11-29T22:01:45.962Z,6.80
2022-11-29T22:04:13.892Z,6.90
2022-11-29T22:06:41.847Z,5.63
2022-11-29T22:09:09.701Z,6.55
2022-11-29T22:11:37.527Z,8.27
2022-11-29T22:14:14.566Z,6.78
2022-11-29T22:16:57.656Z,7.82
2022-11-29T22:19:29.811Z,6.18
2022-11-29T22:22:06.655Z,6.85
2022-11-29T22:24:36.288Z,6.22
2022-11-29T22:27:04.410Z,8.15
2022-11-29T22:29:32.232Z,6.40
2022-11-29T22:32:01.339Z,7.00
2022-11-29T22:34:29.162Z,6.15
2022-11-29T22:36:56.962Z,6.60
2022-11-29T22:39:24.976Z,6.25
2022-11-29T22:41:54.923Z,6.38
2022-11-29T22:44:26.153Z,5.90
2022-11-29T22:46:54.180Z,5.88
2022-11-29T22:49:22.187Z,6.13
2022-11-29T22:51:50.189Z,6.93
2022-11-29T22:54:18.202Z,6.60
2022-11-29T22:56:46.612Z,6.47
2022-11-29T22:59:14.722Z,6.93
2022-11-29T23:01:42.731Z,6.03
2022-11-29T23:04:12.356Z,5.30
2022-11-29T23:06:44.607Z,6.15
2022-11-29T23:09:20.041Z,6.35
2022-11-29T23:11:53.295Z,5.88
2022-11-29T23:14:22.428Z,6.03
2022-11-29T23:16:50.767Z,5.97
2022-11-29T23:19:18.763Z,6.72
2022-11-29T23:21:47.384Z,6.60
2022-11-29T23:24:15.819Z,6.47
2022-11-29T23:26:46.540Z,6.97
2022-11-29T23:29:17.546Z,6.03
2022-11-29T23:31:46.900Z,5.60
2022-11-29T23:34:15.157Z,6.35
2022-11-29T23:36:46.899Z,6.32
2022-11-29T23:39:17.574Z,7.15
2022-11-29T23:41:45.400Z,6.40
2022-11-29T23:44:13.187Z,5.63
2022-11-29T23:46:41.131Z,6.28
2022-11-29T23:49:08.944Z,6.93
2022-11-29T23:51:36.755Z,5.38
2022-11-29T23:54:04.734Z,7.13
2022-11-29T23:56:35.639Z,5.93
2022-11-29T23:59:03.679Z,6.28
